createdAt,value
2023-03-12T00:01:24.479Z,99179.94
2023-03-12T00:03:51.981Z,99180.81
2023-03-12T00:06:19.203Z,99183.38
2023-03-12T00:08:46.099Z,99186.00
2023-03-12T00:11:18.622Z,99188.56
2023-03-12T00:13:48.792Z,99179.97
2023-03-12T00:16:16.132Z,99188.56
2023-03-12T00:18:44.163Z,99191.13
2023-03-12T00:21:11.146Z,99183.38
2023-03-12T00:23:37.842Z,99190.28
2023-03-12T00:26:08.202Z,99184.28
2023-03-12T00:28:35.167Z,99186.84
2023-03-12T00:31:03.374Z,99189.41
2023-03-12T00:33:30.109Z,99188.53
2023-03-12T00:36:00.447Z,99178.22
2023-03-12T00:38:27.077Z,99183.38
2023-03-12T00:40:53.708Z,99180.81
2023-03-12T00:43:20.369Z,99187.69
2023-03-12T00:45:46.991Z,99179.97
2023-03-12T00:48:13.651Z,99192.88
2023-03-12T00:50:40.262Z,99196.25
2023-03-12T00:53:07.046Z,99190.19
2023-03-12T00:55:33.686Z,99193.56
2023-03-12T00:58:00.322Z,99190.94
2023-03-12T01:00:27.063Z,99189.19
2023-03-12T01:02:53.940Z,99190.06
2023-03-12T01:05:20.717Z,99189.19
2023-03-12T01:07:47.349Z,99182.31
2023-03-12T01:10:17.533Z,99181.44
2023-03-12T01:12:44.277Z,99188.25
2023-03-12T01:15:15.051Z,99194.22
2023-03-12T01:17:41.700Z,99188.09
2023-03-12T01:20:09.510Z,99196.66
2023-03-12T01:22:37.124Z,99194.97
2023-03-12T01:25:04.376Z,99203.59
2023-03-12T01:27:31.076Z,99193.34
2023-03-12T01:29:57.748Z,99199.41
2023-03-12T01:32:24.429Z,99190.84
2023-03-12T01:34:51.113Z,99194.31
2023-03-12T01:37:17.743Z,99187.41
2023-03-12T01:39:44.397Z,99196.06
2023-03-12T01:42:11.102Z,99196.94
2023-03-12T01:44:58.753Z,99194.34
2023-03-12T01:47:26.641Z,99188.38
2023-03-12T01:49:55.873Z,99198.72
2023-03-12T01:52:27.400Z,99203.91
2023-03-12T01:55:05.692Z,99205.59
2023-03-12T01:57:42.144Z,99205.56
2023-03-12T02:00:12.247Z,99213.28
2023-03-12T02:02:39.688Z,99206.34
2023-03-12T02:05:15.227Z,99214.91
2023-03-12T02:07:41.877Z,99220.00
2023-03-12T02:10:09.218Z,99213.06
2023-03-12T02:12:35.813Z,99219.94
2023-03-12T02:15:02.592Z,99223.34
2023-03-12T02:17:30.376Z,99222.47
2023-03-12T02:20:27.998Z,99222.47
2023-03-12T02:23:13.342Z,99229.38
2023-03-12T02:25:42.497Z,99230.19
2023-03-12T02:28:13.911Z,99232.75
2023-03-12T02:30:43.288Z,99235.28
2023-03-12T02:33:11.774Z,99235.28
2023-03-12T02:35:38.505Z,99237.88
2023-03-12T02:38:37.162Z,99245.59
2023-03-12T02:41:29.068Z,99240.44
2023-03-12T02:44:11.293Z,99255.91
2023-03-12T02:46:58.356Z,99254.19
2023-03-12T02:49:28.927Z,99250.75
2023-03-12T02:51:56.018Z,99249.91
2023-03-12T02:54:24.199Z,99254.22
2023-03-12T02:56:52.171Z,99255.94
2023-03-12T02:59:22.749Z,99264.56
2023-03-12T03:01:53.145Z,99262.88
2023-03-12T03:04:20.051Z,99260.31
2023-03-12T03:06:48.385Z,99271.53
2023-03-12T03:09:15.197Z,99271.53
2023-03-12T03:11:42.116Z,99277.53
2023-03-12T03:14:08.857Z,99286.13
2023-03-12T03:16:35.932Z,99278.38
2023-03-12T03:19:02.589Z,99289.53
2023-03-12T03:21:30.223Z,99282.66
2023-03-12T03:23:56.858Z,99289.53
2023-03-12T03:26:24.830Z,99285.22
2023-03-12T03:28:51.552Z,99289.47
2023-03-12T03:31:18.781Z,99287.75
2023-03-12T03:33:45.489Z,99296.31
2023-03-12T03:36:14.966Z,99293.72
2023-03-12T03:38:42.566Z,99304.03
2023-03-12T03:41:09.222Z,99303.16
2023-03-12T03:43:35.823Z,99304.88
2023-03-12T03:46:05.409Z,99302.31
2023-03-12T03:48:32.265Z,99323.78
2023-03-12T03:51:07.753Z,99311.75
2023-03-12T03:53:34.775Z,99316.91
2023-03-12T03:56:09.614Z,99323.78
2023-03-12T03:58:36.302Z,99322.09
2023-03-12T04:01:03.548Z,99326.41
2023-03-12T04:03:30.553Z,99320.41
2023-03-12T04:06:00.164Z,99323.84
2023-03-12T04:08:27.079Z,99332.44
2023-03-12T04:10:53.805Z,99339.31
2023-03-12T04:13:20.884Z,99331.59
2023-03-12T04:15:49.227Z,99336.78
2023-03-12T04:18:16.692Z,99336.75
2023-03-12T04:20:43.738Z,99344.50
2023-03-12T04:23:11.177Z,99349.63
2023-03-12T04:25:38.385Z,99351.38
2023-03-12T04:28:05.385Z,99354.88
2023-03-12T04:30:32.113Z,99354.06
2023-03-12T04:32:58.743Z,99362.75
2023-03-12T04:35:25.404Z,99361.97
2023-03-12T04:37:52.076Z,99356.84
2023-03-12T04:40:20.021Z,99368.91
2023-03-12T04:42:47.920Z,99362.94
2023-03-12T04:45:15.213Z,99368.97
2023-03-12T04:47:41.904Z,99376.75
2023-03-12T04:50:09.475Z,99375.88
2023-03-12T04:52:36.095Z,99377.53
2023-03-12T04:55:02.849Z,99371.50
2023-03-12T04:57:29.476Z,99387.00
2023-03-12T04:59:56.087Z,99386.16
2023-03-12T05:02:22.768Z,99393.00
2023-03-12T05:04:49.381Z,99392.13
2023-03-12T05:07:16.006Z,99395.53
2023-03-12T05:09:44.195Z,99402.44
2023-03-12T05:12:11.090Z,99403.25
2023-03-12T05:14:39.556Z,99404.16
2023-03-12T05:17:06.976Z,99399.84
2023-03-12T05:19:33.723Z,99414.47
2023-03-12T05:22:00.420Z,99407.63
2023-03-12T05:24:27.565Z,99419.66
2023-03-12T05:26:54.273Z,99417.13
2023-03-12T05:29:20.991Z,99412.84
2023-03-12T05:31:47.755Z,99416.31
2023-03-12T05:34:14.509Z,99421.56
2023-03-12T05:36:41.340Z,99417.28
2023-03-12T05:39:08.314Z,99416.47
2023-03-12T05:41:35.075Z,99427.69
2023-03-12T05:44:01.762Z,99429.44
2023-03-12T05:46:29.081Z,99431.19
2023-03-12T05:48:55.964Z,99428.63
2023-03-12T05:51:22.652Z,99429.53
2023-03-12T05:53:49.351Z,99434.75
2023-03-12T05:56:17.889Z,99434.78
2023-03-12T05:58:44.797Z,99439.94
2023-03-12T06:01:26.031Z,99440.78
2023-03-12T06:03:52.687Z,99446.03
2023-03-12T06:06:19.668Z,99457.25
2023-03-12T06:08:46.683Z,99454.69
2023-03-12T06:11:13.894Z,99457.31
2023-03-12T06:13:40.794Z,99470.31
2023-03-12T06:16:12.340Z,99468.63
2023-03-12T06:18:39.031Z,99471.25
2023-03-12T06:21:11.384Z,99467.88
2023-03-12T06:23:38.707Z,99478.25
2023-03-12T06:26:06.054Z,99472.25
2023-03-12T06:28:34.014Z,99485.28
2023-03-12T06:31:01.102Z,99491.31
2023-03-12T06:33:28.450Z,99487.06
2023-03-12T06:35:56.968Z,99500.00
2023-03-12T06:38:23.682Z,99494.00
2023-03-12T06:41:13.788Z,99511.25
2023-03-12T06:43:41.521Z,99513.88
2023-03-12T06:46:11.902Z,99509.56
2023-03-12T06:48:41.361Z,99513.94
2023-03-12T06:51:09.488Z,99516.50
2023-03-12T06:53:36.100Z,99521.69
2023-03-12T06:56:03.313Z,99524.28
2023-03-12T06:58:30.391Z,99522.59
2023-03-12T07:00:57.465Z,99530.34
2023-03-12T07:03:24.900Z,99535.56
2023-03-12T07:05:51.847Z,99535.59
2023-03-12T07:08:18.914Z,99530.41
2023-03-12T07:10:46.096Z,99541.66
2023-03-12T07:13:13.111Z,99542.53
2023-03-12T07:15:39.805Z,99539.09
2023-03-12T07:18:08.165Z,99559.81
2023-03-12T07:20:38.653Z,99559.03
2023-03-12T07:23:05.790Z,99560.78
2023-03-12T07:25:36.333Z,99567.72
2023-03-12T07:28:03.502Z,99575.50
2023-03-12T07:30:33.548Z,99564.31
2023-03-12T07:33:04.283Z,99581.59
2023-03-12T07:35:31.514Z,99584.22
2023-03-12T07:37:59.270Z,99580.78
2023-03-12T07:40:26.465Z,99589.41
2023-03-12T07:42:53.813Z,99585.97
2023-03-12T07:45:20.714Z,99583.38
2023-03-12T07:47:48.229Z,99589.41
2023-03-12T07:50:16.006Z,99594.59
2023-03-12T07:52:42.789Z,99605.88
2023-03-12T07:55:10.433Z,99594.63
2023-03-12T07:57:38.482Z,99597.25
2023-03-12T08:00:08.742Z,99598.13
2023-03-12T08:02:35.462Z,99606.75
2023-03-12T08:05:02.940Z,99608.50
2023-03-12T08:07:32.504Z,99605.03
2023-03-12T08:10:00.152Z,99607.63
2023-03-12T08:12:28.035Z,99604.19
2023-03-12T08:14:54.763Z,99600.75
2023-03-12T08:17:21.851Z,99606.78
2023-03-12T08:19:48.609Z,99605.06
2023-03-12T08:22:15.292Z,99614.56
2023-03-12T08:24:41.956Z,99619.75
2023-03-12T08:27:08.854Z,99625.81
2023-03-12T08:29:35.503Z,99623.22
2023-03-12T08:32:05.356Z,99624.91
2023-03-12T08:34:35.647Z,99620.63
2023-03-12T08:37:03.034Z,99627.53
2023-03-12T08:39:30.271Z,99632.75
2023-03-12T08:41:56.869Z,99636.22
2023-03-12T08:44:24.487Z,99635.34
2023-03-12T08:46:52.010Z,99631.91
2023-03-12T08:49:19.691Z,99632.78
2023-03-12T08:51:46.373Z,99630.19
2023-03-12T08:54:13.264Z,99639.69
2023-03-12T08:56:43.711Z,99637.06
2023-03-12T08:59:11.784Z,99635.22
2023-03-12T09:01:39.509Z,99655.94
2023-03-12T09:04:07.286Z,99652.41
2023-03-12T09:06:35.426Z,99648.97
2023-03-12T09:09:05.725Z,99646.34
2023-03-12T09:11:33.941Z,99655.88
2023-03-12T09:14:49.958Z,99664.56
2023-03-12T09:16:48.484Z,99662.00
2023-03-12T09:19:15.818Z,99664.63
2023-03-12T09:21:43.013Z,99670.69
2023-03-12T09:24:11.305Z,99662.03
2023-03-12T09:26:37.967Z,99668.97
2023-03-12T09:29:04.588Z,99681.97
2023-03-12T09:31:31.247Z,99682.84
2023-03-12T09:33:57.883Z,99683.72
2023-03-12T09:36:24.506Z,99688.94
2023-03-12T09:38:51.136Z,99697.56
2023-03-12T09:41:21.716Z,99685.41
2023-03-12T09:44:31.597Z,99690.66
2023-03-12T09:47:03.284Z,99696.69
2023-03-12T09:49:47.032Z,99709.69
2023-03-12T09:52:24.568Z,99703.63
2023-03-12T09:55:28.851Z,99707.09
2023-03-12T09:57:56.959Z,99712.22
2023-03-12T10:00:30.092Z,99713.09
2023-03-12T10:03:12.893Z,99711.34
2023-03-12T10:06:11.254Z,99711.31
2023-03-12T10:08:37.826Z,99713.88
2023-03-12T10:11:22.201Z,99715.59
2023-03-12T10:14:26.176Z,99710.34
2023-03-12T10:17:15.685Z,99712.00
2023-03-12T10:20:16.361Z,99714.56
2023-03-12T10:22:55.516Z,99721.44
2023-03-12T10:26:05.836Z,99722.28
2023-03-12T10:28:45.773Z,99724.91
2023-03-12T10:31:29.643Z,99723.13
2023-03-12T10:33:59.627Z,99735.22
2023-03-12T10:36:35.026Z,99737.81
2023-03-12T10:39:01.990Z,99736.03
2023-03-12T10:41:34.218Z,99733.41
2023-03-12T10:44:07.774Z,99736.81
2023-03-12T10:46:37.173Z,99737.72
2023-03-12T10:49:37.671Z,99740.38
2023-03-12T10:52:17.227Z,99736.91
2023-03-12T10:54:47.112Z,99735.16
2023-03-12T10:57:17.960Z,99741.19
2023-03-12T10:59:47.620Z,99748.09
2023-03-12T11:02:30.793Z,99748.94
2023-03-12T11:04:58.915Z,99750.72
2023-03-12T11:07:28.874Z,99741.16
2023-03-12T11:10:17.750Z,99754.13
2023-03-12T11:13:01.562Z,99752.41
2023-03-12T11:15:40.082Z,99749.75
2023-03-12T11:18:40.529Z,99760.19
2023-03-12T11:21:10.057Z,99754.06
2023-03-12T11:23:48.237Z,99760.97
2023-03-12T11:26:23.976Z,99756.63
2023-03-12T11:29:06.331Z,99753.13
2023-03-12T11:31:41.569Z,99761.84
2023-03-12T11:34:33.937Z,99770.50
2023-03-12T11:37:26.410Z,99760.03
2023-03-12T11:40:14.426Z,99765.19
2023-03-12T11:42:52.844Z,99765.19
2023-03-12T11:45:31.482Z,99766.06
2023-03-12T11:48:25.478Z,99765.19
2023-03-12T11:51:06.723Z,99763.41
2023-03-12T11:53:58.001Z,99770.25
2023-03-12T11:56:30.645Z,99776.31
2023-03-12T11:59:07.687Z,99773.72
2023-03-12T12:01:58.159Z,99767.69
2023-03-12T12:04:55.830Z,99772.09
2023-03-12T12:07:44.336Z,99781.59
2023-03-12T12:10:36.595Z,99772.91
2023-03-12T12:13:22.428Z,99776.41
2023-03-12T12:16:07.480Z,99772.91
2023-03-12T12:18:50.962Z,99785.94
2023-03-12T12:21:49.351Z,99775.53
2023-03-12T12:24:46.774Z,99792.84
2023-03-12T12:27:42.903Z,99778.94
2023-03-12T12:30:24.305Z,99776.34
2023-03-12T12:33:00.168Z,99783.31
2023-03-12T12:35:43.280Z,99782.41
2023-03-12T12:38:16.581Z,99793.66
2023-03-12T12:40:51.503Z,99797.13
2023-03-12T12:43:23.937Z,99792.81
2023-03-12T12:45:53.770Z,99783.25
2023-03-12T12:48:36.775Z,99784.97
2023-03-12T12:51:08.309Z,99786.63
2023-03-12T12:53:50.358Z,99787.47
2023-03-12T12:56:29.399Z,99788.31
2023-03-12T12:59:31.673Z,99796.94
2023-03-12T13:01:59.786Z,99798.66
2023-03-12T13:04:32.350Z,99788.22
2023-03-12T13:07:24.087Z,99801.25
2023-03-12T13:09:57.091Z,99786.44
2023-03-12T13:12:32.720Z,99792.53
2023-03-12T13:15:01.524Z,99788.13
2023-03-12T13:17:34.343Z,99788.97
2023-03-12T13:20:10.943Z,99798.47
2023-03-12T13:23:05.311Z,99795.88
2023-03-12T13:26:01.552Z,99800.25
2023-03-12T13:28:30.354Z,99794.16
2023-03-12T13:30:58.803Z,99797.59
2023-03-12T13:33:45.489Z,99784.53
2023-03-12T13:36:23.894Z,99793.19
2023-03-12T13:38:59.891Z,99783.59
2023-03-12T13:41:34.373Z,99786.16
2023-03-12T13:44:21.816Z,99790.47
2023-03-12T13:47:18.522Z,99786.13
2023-03-12T13:50:01.600Z,99799.06
2023-03-12T13:52:37.895Z,99796.44
2023-03-12T13:55:08.100Z,99803.34
2023-03-12T13:57:55.229Z,99795.47
2023-03-12T14:00:55.174Z,99794.50
2023-03-12T14:03:27.710Z,99797.09
2023-03-12T14:06:06.608Z,99796.19
2023-03-12T14:08:45.011Z,99797.91
2023-03-12T14:11:34.468Z,99788.34
2023-03-12T14:14:24.173Z,99791.81
2023-03-12T14:16:54.275Z,99793.47
2023-03-12T14:19:25.379Z,99794.31
2023-03-12T14:21:54.039Z,99787.28
2023-03-12T14:24:28.792Z,99795.09
2023-03-12T14:26:56.984Z,99789.84
2023-03-12T14:29:41.406Z,99792.28
2023-03-12T14:32:24.222Z,99797.34
2023-03-12T14:35:15.602Z,99798.25
2023-03-12T14:37:56.757Z,99802.59
2023-03-12T14:40:45.984Z,99797.41
2023-03-12T14:43:30.958Z,99790.44
2023-03-12T14:46:00.243Z,99797.34
2023-03-12T14:48:32.500Z,99799.94
2023-03-12T14:51:00.726Z,99790.34
2023-03-12T14:53:29.623Z,99793.75
2023-03-12T14:56:34.850Z,99798.88
2023-03-12T14:59:23.187Z,99798.69
2023-03-12T15:01:50.171Z,99802.94
2023-03-12T15:04:20.889Z,99797.59
2023-03-12T15:06:51.039Z,99787.09
2023-03-12T15:09:22.133Z,99789.66
2023-03-12T15:11:58.843Z,99786.25
2023-03-12T15:14:29.368Z,99789.75
2023-03-12T15:16:59.398Z,99796.72
2023-03-12T15:19:32.736Z,99797.66
2023-03-12T15:22:00.028Z,99807.34
2023-03-12T15:24:28.502Z,99810.13
2023-03-12T15:26:55.181Z,99809.38
2023-03-12T15:29:26.904Z,99812.16
2023-03-12T15:32:00.994Z,99807.06
2023-03-12T15:34:46.413Z,99808.94
2023-03-12T15:37:32.430Z,99809.91
2023-03-12T15:40:06.897Z,99800.44
2023-03-12T15:42:46.172Z,99816.16
2023-03-12T15:45:31.317Z,99809.25
2023-03-12T15:47:58.081Z,99808.47
2023-03-12T15:50:31.146Z,99807.63
2023-03-12T15:52:59.260Z,99814.66
2023-03-12T15:55:30.693Z,99807.72
2023-03-12T15:57:59.587Z,99818.19
2023-03-12T16:00:26.793Z,99820.00
2023-03-12T16:02:54.906Z,99825.28
2023-03-12T16:05:26.162Z,99828.84
2023-03-12T16:07:52.908Z,99836.72
2023-03-12T16:10:23.012Z,99838.53
2023-03-12T16:12:52.621Z,99842.94
2023-03-12T16:15:29.641Z,99843.88
2023-03-12T16:17:56.265Z,99843.09
2023-03-12T16:20:22.878Z,99844.00
2023-03-12T16:22:49.506Z,99847.53
2023-03-12T16:25:16.215Z,99837.97
2023-03-12T16:27:55.295Z,99847.59
2023-03-12T16:30:34.153Z,99845.91
2023-03-12T16:33:02.283Z,99850.25
2023-03-12T16:35:31.310Z,99846.84
2023-03-12T16:38:01.359Z,99848.63
2023-03-12T16:40:34.971Z,99857.34
2023-03-12T16:43:05.861Z,99848.72
2023-03-12T16:45:35.866Z,99860.03
2023-03-12T16:48:05.396Z,99851.38
2023-03-12T16:50:32.387Z,99866.16
2023-03-12T16:52:59.027Z,99874.84
2023-03-12T16:55:39.578Z,99873.16
2023-03-12T16:58:07.195Z,99877.53
2023-03-12T17:00:34.483Z,99882.75
2023-03-12T17:03:01.933Z,99885.38
2023-03-12T17:05:30.139Z,99880.16
2023-03-12T17:07:57.644Z,99882.78
2023-03-12T17:10:25.815Z,99886.28
2023-03-12T17:12:53.487Z,99901.03
2023-03-12T17:15:22.933Z,99902.78
2023-03-12T17:17:50.118Z,99912.34
2023-03-12T17:20:19.525Z,99908.88
2023-03-12T17:22:46.412Z,99911.50
2023-03-12T17:25:30.715Z,99906.28
2023-03-12T17:27:57.979Z,99911.50
2023-03-12T17:30:25.456Z,99916.72
2023-03-12T17:32:53.348Z,99912.41
2023-03-12T17:35:20.567Z,99920.19
2023-03-12T17:37:51.107Z,99926.28
2023-03-12T17:40:18.108Z,99928.88
2023-03-12T17:42:44.913Z,99932.38
2023-03-12T17:45:11.652Z,99930.66
2023-03-12T17:47:38.862Z,99928.91
2023-03-12T17:50:06.987Z,99932.38
2023-03-12T17:52:34.269Z,99935.84
2023-03-12T17:55:01.239Z,99942.78
2023-03-12T17:57:28.294Z,99954.03
2023-03-12T17:59:55.156Z,99957.53
2023-03-12T18:02:21.805Z,99954.94
2023-03-12T18:04:48.673Z,99960.13
2023-03-12T18:07:15.304Z,99953.19
2023-03-12T18:09:41.988Z,99956.66
2023-03-12T18:12:11.263Z,99958.41
2023-03-12T18:14:38.257Z,99960.13
2023-03-12T18:17:05.165Z,99964.47
2023-03-12T18:19:31.897Z,99982.66
2023-03-12T18:21:58.614Z,99985.25
2023-03-12T18:24:25.309Z,99986.13
2023-03-12T18:26:52.581Z,99978.31
2023-03-12T18:29:19.227Z,99975.72
2023-03-12T18:31:45.916Z,99978.31
2023-03-12T18:34:12.568Z,99982.63
2023-03-12T18:36:39.214Z,99974.81
2023-03-12T18:39:06.617Z,99980.88
2023-03-12T18:41:33.618Z,99982.59
2023-03-12T18:44:00.689Z,99981.72
2023-03-12T18:46:28.022Z,99980.84
2023-03-12T18:48:54.856Z,99983.44
2023-03-12T18:51:21.478Z,99992.09
2023-03-12T18:53:48.189Z,99988.63
2023-03-12T18:56:14.818Z,99998.13
2023-03-12T18:58:41.507Z,99998.13
2023-03-12T19:01:08.242Z,99998.09
2023-03-12T19:03:36.535Z,99992.91
2023-03-12T19:06:12.475Z,99989.44
2023-03-12T19:08:39.548Z,99996.38
2023-03-12T19:11:11.571Z,99989.41
2023-03-12T19:13:38.678Z,99996.34
2023-03-12T19:16:08.778Z,99998.06
2023-03-12T19:18:36.754Z,99992.00
2023-03-12T19:21:03.634Z,99995.44
2023-03-12T19:23:30.261Z,100004.97
2023-03-12T19:25:56.884Z,100002.38
2023-03-12T19:28:23.545Z,99989.34
2023-03-12T19:30:50.197Z,99994.53
2023-03-12T19:33:16.858Z,99997.97
2023-03-12T19:35:43.554Z,99998.81
2023-03-12T19:38:10.230Z,100002.25
2023-03-12T19:40:36.868Z,99997.94
2023-03-12T19:43:03.513Z,99997.06
2023-03-12T19:45:30.192Z,99989.28
2023-03-12T19:47:57.042Z,99992.69
2023-03-12T19:50:24.210Z,99996.13
2023-03-12T19:52:50.944Z,100003.03
2023-03-12T19:55:17.806Z,100004.75
2023-03-12T19:57:44.491Z,99996.06
2023-03-12T20:00:12.321Z,100007.28
2023-03-12T20:02:39.909Z,100009.00
2023-03-12T20:05:08.009Z,99995.16
2023-03-12T20:07:35.210Z,100012.44
2023-03-12T20:10:01.851Z,100012.41
2023-03-12T20:12:28.482Z,100002.00
2023-03-12T20:14:55.099Z,100008.06
2023-03-12T20:17:21.792Z,100011.53
2023-03-12T20:19:48.408Z,100017.56
2023-03-12T20:22:15.376Z,100014.97
2023-03-12T20:24:42.051Z,100013.25
2023-03-12T20:27:08.693Z,100014.06
2023-03-12T20:29:35.319Z,100011.47
2023-03-12T20:32:01.955Z,100019.28
2023-03-12T20:34:28.629Z,100017.50
2023-03-12T20:36:55.237Z,100017.50
2023-03-12T20:39:21.824Z,100021.88
2023-03-12T20:41:49.330Z,100021.00
2023-03-12T20:44:16.698Z,100021.84
2023-03-12T20:46:43.337Z,100020.13
2023-03-12T20:49:09.988Z,100018.41
2023-03-12T20:51:36.608Z,100022.75
2023-03-12T20:54:03.272Z,100018.44
2023-03-12T20:56:29.953Z,100015.88
2023-03-12T20:58:57.231Z,100016.72
2023-03-12T21:01:24.506Z,100021.88
2023-03-12T21:03:51.467Z,100021.03
2023-03-12T21:06:18.220Z,100025.31
2023-03-12T21:08:44.807Z,100022.72
2023-03-12T21:11:11.538Z,100025.25
2023-03-12T21:13:38.152Z,100020.06
2023-03-12T21:16:06.003Z,100014.84
2023-03-12T21:18:33.058Z,100011.34
2023-03-12T21:21:04.623Z,100012.22
2023-03-12T21:23:32.266Z,100014.81
2023-03-12T21:26:01.015Z,100019.09
2023-03-12T21:28:28.584Z,100010.47
2023-03-12T21:30:55.623Z,100007.88
2023-03-12T21:33:22.262Z,100007.84
2023-03-12T21:35:48.947Z,100005.25
2023-03-12T21:38:15.686Z,100008.66
2023-03-12T21:40:42.342Z,100008.66
2023-03-12T21:43:08.960Z,100005.19
2023-03-12T21:45:35.589Z,100004.28
2023-03-12T21:48:02.226Z,99993.94
2023-03-12T21:50:28.925Z,100000.84
2023-03-12T21:52:55.549Z,99994.72
2023-03-12T21:55:22.179Z,100012.00
2023-03-12T21:57:48.800Z,100008.53
2023-03-12T22:00:15.723Z,100020.56
2023-03-12T22:02:44.633Z,100012.78
2023-03-12T22:05:12.173Z,100023.97
2023-03-12T22:07:39.061Z,100028.28
2023-03-12T22:10:07.544Z,100023.91
2023-03-12T22:12:34.182Z,100027.38
2023-03-12T22:15:00.842Z,100016.97
2023-03-12T22:17:27.802Z,100017.84
2023-03-12T22:19:54.634Z,100022.16
2023-03-12T22:22:21.276Z,100026.47
2023-03-12T22:24:47.929Z,100023.91
2023-03-12T22:27:14.547Z,100013.50
2023-03-12T22:29:42.731Z,100015.25
2023-03-12T22:32:09.369Z,100022.19
2023-03-12T22:34:36.081Z,100016.13
2023-03-12T22:37:02.911Z,100022.13
2023-03-12T22:39:29.518Z,100021.22
2023-03-12T22:41:56.191Z,100019.50
2023-03-12T22:44:22.829Z,100019.50
2023-03-12T22:46:51.070Z,100020.34
2023-03-12T22:49:17.792Z,100016.03
2023-03-12T22:51:44.421Z,100016.94
2023-03-12T22:54:11.072Z,100012.63
2023-03-12T22:56:37.719Z,100014.34
2023-03-12T22:59:04.384Z,100028.09
2023-03-12T23:01:31.162Z,100015.97
2023-03-12T23:03:57.913Z,100026.25
2023-03-12T23:06:27.015Z,100017.63
2023-03-12T23:08:55.171Z,100015.88
2023-03-12T23:11:25.287Z,100015.88
2023-03-12T23:13:52.748Z,100012.41
2023-03-12T23:16:22.110Z,100019.28
2023-03-12T23:18:49.237Z,100018.41
2023-03-12T23:21:19.050Z,100009.75
2023-03-12T23:23:46.158Z,100002.84
2023-03-12T23:26:19.110Z,99999.38
2023-03-12T23:28:51.148Z,100007.13
2023-03-12T23:31:18.034Z,100012.22
2023-03-12T23:33:45.121Z,100012.13
2023-03-12T23:36:21.069Z,100016.38
2023-03-12T23:38:48.764Z,100014.56
2023-03-12T23:41:19.547Z,100017.94
2023-03-12T23:43:46.382Z,100013.53
2023-03-12T23:46:16.930Z,100017.88
2023-03-12T23:48:45.507Z,100017.03
2023-03-12T23:51:22.320Z,100019.59
2023-03-12T23:53:51.190Z,100016.97
2023-03-12T23:56:23.460Z,100022.16
2023-03-12T23:58:51.079Z,100026.47
